Latest Weather Observations for Dunalley

IDT60901

Issued at 12:51 pm EST Thursday 5 May 2016 (issued every 10 minutes, with the page automatically refreshed every 10 minutes)

About weather observations | Map of Hobart area stations | Latest observations for Hobart area | Other Formats
Station Details ID: 094254 Name: DUNALLEY (STROUD POINT) Lat: -42.90 Lon: 147.79 Height: 12.43 m
Data from the previous 72 hours. | See also: Recent months at Dunalley
Date/Time
EST
Tmp

°C
App
Tmp
°C
Dew
Point
°C
Rel
Hum
%
Delta-T

°C
Wind Press
QNH
hPa
Press
MSL
hPa
Rain
since
9 am
mm
Dir
 
Spd
km/h
Gust
km/h
Spd
kts
Gust
kts
05/12:30pm 18.8 14.8 10.6 59 4.4 N 22 32 12 17 1005.1 1005.1 0.0
05/12:00pm 19.3 15.0 10.6 57 4.7 N 24 35 13 19 1005.4 1005.4 0.0
05/11:30am 19.5 15.9 10.0 54 5.1 N 19 33 10 18 1005.8 1005.8 0.0
05/11:00am 19.3 15.7 10.6 57 4.7 NNE 20 32 11 17 1006.5 1006.5 0.0
05/10:30am 17.2 13.6 10.6 65 3.5 NNE 20 33 11 18 1007.0 1007.0 0.0
05/10:00am 15.9 11.4 10.2 69 3.0 NNE 24 33 13 18 1007.1 1007.1 0.0
05/09:30am 15.5 11.3 9.8 69 3.0 NNE 22 41 12 22 1007.3 1007.3 0.0
05/09:00am 15.1 10.5 9.7 70 2.8 NNE 24 32 13 17 1007.4 1007.4 0.0
05/08:30am 14.9 10.3 9.5 70 2.8 NNE 24 33 13 18 1007.3 1007.3 0.0
05/08:00am 14.6 9.9 9.4 71 2.7 NE 24 30 13 16 1007.2 1007.2 0.0
05/07:30am 14.0 10.0 9.0 72 2.5 NNE 20 26 11 14 1006.8 1006.8 0.0
05/07:00am 13.5 10.1 9.0 74 2.3 NNE 17 28 9 15 1006.7 1006.7 0.0
05/06:30am 13.7 9.7 9.0 73 2.4 NE 20 26 11 14 1006.3 1006.3 0.0
05/06:00am 13.5 10.4 8.8 73 2.4 NNE 15 24 8 13 1006.3 1006.3 0.0
05/05:30am 13.5 9.8 7.9 69 2.8 N 17 22 9 12 1006.1 1006.1 0.0
05/05:00am 12.8 9.4 7.7 71 2.5 N 15 20 8 11 1005.9 1005.9 0.0
05/04:30am 12.8 9.0 7.5 70 2.6 N 17 20 9 11 1005.7 1005.7 0.0
05/04:00am 12.7 8.5 7.4 70 2.6 N 19 24 10 13 1005.6 1005.6 0.0
05/03:30am 12.5 9.0 7.2 70 2.6 N 15 20 8 11 1005.6 1005.6 0.0
05/03:00am 12.5 9.2 6.5 67 2.9 N 13 15 7 8 1005.6 1005.6 0.0
05/02:30am 12.5 9.3 7.0 69 2.6 N 13 17 7 9 1005.5 1005.5 0.0
05/02:00am 12.8 9.5 6.6 66 3.0 N 13 20 7 11 1005.6 1005.6 0.0
05/01:30am 12.6 8.6 6.6 67 2.9 N 17 22 9 12 1005.6 1005.6 0.0
05/01:00am 12.4 8.7 6.5 67 2.8 N 15 22 8 12 1005.6 1005.6 0.0
05/12:30am 13.3 8.9 6.4 63 3.3 N 19 24 10 13 1005.8 1005.8 0.0
05/12:00am 13.1 9.3 6.0 62 3.4 N 15 22 8 12 1005.9 1005.9 0.0
 
Date/Time
EST
Tmp

°C
App
Tmp
°C
Dew
Point
°C
Rel
Hum
%
Delta-T

°C
Wind Press
QNH
hPa
Press
MSL
hPa
Rain
since
9 am
mm
Dir
 
Spd
km/h
Gust
km/h
Spd
kts
Gust
kts
04/11:30pm 13.3 9.1 5.7 60 3.6 N 17 30 9 16 1006.0 1006.0 0.0
04/11:00pm 12.4 6.9 5.8 64 3.1 N 24 33 13 18 1005.9 1005.9 0.0
04/10:30pm 11.5 5.5 5.4 66 2.8 N 26 35 14 19 1006.2 1006.2 0.0
04/10:00pm 11.9 6.6 5.1 63 3.1 N 22 30 12 16 1006.7 1006.7 0.0
04/09:30pm 11.9 7.0 5.1 63 3.1 N 20 30 11 16 1006.8 1006.8 0.0
04/09:00pm 13.1 8.1 3.7 53 4.2 NNW 19 26 10 14 1006.8 1006.8 0.0
04/08:30pm 12.7 8.5 3.6 54 4.1 NNW 15 22 8 12 1006.8 1006.8 0.0
04/08:00pm 12.8 8.5 3.5 53 4.2 NNW 15 24 8 13 1006.6 1006.6 0.0
04/07:30pm 12.4 8.1 3.4 54 4.0 N 15 24 8 13 1006.7 1006.7 0.0
04/07:00pm 12.3 8.0 3.0 53 4.1 N 15 24 8 13 1006.8 1006.8 0.0
04/06:30pm 12.1 8.3 2.0 50 4.3 NNW 11 19 6 10 1006.8 1006.8 0.0
04/06:00pm 12.7 7.8 2.3 49 4.5 NW 17 26 9 14 1006.5 1006.5 0.0
04/05:30pm 12.8 9.4 2.1 48 4.6 NW 9 19 5 10 1006.5 1006.5 0.0
04/05:00pm 12.8 7.6 2.4 49 4.6 NW 19 28 10 15 1006.2 1006.2 0.0
04/04:30pm 13.3 8.1 2.5 48 4.7 NW 19 28 10 15 1005.8 1005.8 0.0
04/04:00pm 14.4 9.0 2.6 45 5.3 NW 20 39 11 21 1006.0 1006.0 0.0
04/03:30pm 14.2 8.1 2.5 45 5.2 NW 24 37 13 20 1006.0 1006.0 0.0
04/03:00pm 14.6 8.5 2.8 45 5.3 NW 24 39 13 21 1005.8 1005.8 0.0
04/02:30pm 15.2 10.5 3.0 44 5.5 NW 17 33 9 18 1005.9 1005.9 0.0
04/02:00pm 14.1 8.7 2.4 45 5.2 NW 20 33 11 18 1005.7 1005.7 0.0
04/01:30pm 13.5 7.4 3.0 49 4.7 NW 24 35 13 19 1006.0 1006.0 0.0
04/01:00pm 13.7 8.4 3.2 49 4.7 WNW 20 33 11 18 1006.2 1006.2 0.0
04/12:30pm 13.7 8.6 2.9 48 4.8 NW 19 26 10 14 1006.3 1006.3 0.0
04/12:00pm 12.4 7.0 2.6 51 4.3 WNW 20 30 11 16 1006.5 1006.5 0.0
04/11:30am 12.8 8.3 2.4 49 4.5 NW 15 24 8 13 1006.6 1006.6 0.0
04/11:00am 12.4 6.2 2.3 50 4.4 WNW 24 35 13 19 1006.1 1006.1 0.0
04/10:30am 12.1 7.7 2.8 53 4.1 NW 15 22 8 12 1006.2 1006.2 0.0
04/10:00am 11.0 4.8 2.1 54 3.8 NW 24 37 13 20 1005.8 1005.8 0.0
04/09:30am 10.2 3.3 2.6 59 3.2 WNW 28 41 15 22 1005.3 1005.3 0.0
04/09:00am 9.6 4.7 2.0 59 3.2 NW 17 24 9 13 1005.4 1005.4 1.4
04/08:30am 9.1 4.9 1.8 60 3.0 NNW 13 20 7 11 1005.3 1005.3 1.4
04/08:00am 8.4 3.8 1.8 63 2.7 NW 15 24 8 13 1004.9 1004.9 1.4
04/07:30am 7.3 4.3 1.8 68 2.2 NW 7 13 4 7 1004.5 1004.5 1.4
04/07:00am 6.8 3.0 1.9 71 2.0 NW 11 24 6 13 1003.8 1003.8 1.4
04/06:30am 6.8 2.3 1.9 71 2.0 NNW 15 22 8 12 1003.3 1003.3 1.4
04/06:00am 7.0 3.3 2.1 71 2.0 NW 11 22 6 12 1002.7 1002.7 1.4
04/05:30am 7.5 0.9 2.2 69 2.2 NW 26 37 14 20 1002.2 1002.2 1.4
04/05:00am 7.2 0.6 1.9 69 2.2 NW 26 41 14 22 1001.2 1001.2 1.4
04/04:30am 7.4 -0.4 1.7 67 2.3 WNW 32 48 17 26 1000.1 1000.1 1.4
04/04:11am 7.3 0.3 1.8 68 2.2 NW 28 50 15 27 999.4 999.4 1.4
04/04:00am 7.3 0.2 1.6 67 2.3 NW 28 37 15 20 999.6 999.6 1.4
04/03:30am 7.2 0.9 1.7 68 2.2 NW 24 37 13 20 999.6 999.6 1.4
04/03:00am 7.1 -0.3 1.6 68 2.2 NW 30 46 16 25 998.8 998.8 1.4
04/02:30am 7.3 0.2 1.6 67 2.3 WNW 28 39 15 21 998.4 998.4 1.4
04/02:00am 6.8 0.6 2.1 72 1.9 WNW 24 39 13 21 998.3 998.3 1.4
04/01:30am 7.1 1.7 2.6 73 1.9 WNW 20 33 11 18 998.0 998.0 1.4
04/01:00am 7.3 2.5 2.6 72 2.0 WNW 17 26 9 14 997.4 997.4 1.4
04/12:30am 7.2 1.5 2.7 73 1.9 WNW 22 32 12 17 997.1 997.1 1.4
04/12:00am 7.7 1.6 2.8 71 2.1 WNW 24 33 13 18 997.0 997.0 1.4
 
Date/Time
EST
Tmp

°C
App
Tmp
°C
Dew
Point
°C
Rel
Hum
%
Delta-T

°C
Wind Press
QNH
hPa
Press
MSL
hPa
Rain
since
9 am
mm
Dir
 
Spd
km/h
Gust
km/h
Spd
kts
Gust
kts
03/11:30pm 7.5 1.8 2.6 71 2.0 WNW 22 30 12 16 996.7 996.7 1.4
03/11:00pm 8.0 1.4 2.0 66 2.5 WNW 26 35 14 19 996.0 996.0 1.4
03/10:30pm 8.0 2.6 2.5 68 2.3 W 20 26 11 14 995.8 995.8 1.4
03/10:00pm 8.5 1.2 2.3 65 2.6 WNW 30 43 16 23 995.4 995.4 1.4
03/09:30pm 8.5 1.1 2.1 64 2.7 WNW 30 41 16 22 994.9 994.9 1.4
03/09:00pm 8.4 1.0 2.0 64 2.7 NW 30 43 16 23 994.4 994.4 1.4
03/08:30pm 8.4 1.1 2.2 65 2.6 NW 30 43 16 23 993.9 993.9 1.4
03/08:00pm 8.7 2.7 3.1 68 2.4 NW 24 35 13 19 993.5 993.5 1.4
03/07:30pm 9.2 2.0 3.2 66 2.6 WNW 30 41 16 22 993.1 993.1 1.4
03/07:00pm 9.7 2.1 2.8 62 3.0 WNW 32 46 17 25 992.2 992.2 1.4
03/06:46pm 9.9 2.7 3.0 62 3.0 WNW 30 50 16 27 991.8 991.8 1.4
03/06:30pm 10.3 3.9 3.1 61 3.1 WNW 26 48 14 26 991.6 991.6 1.4
03/06:10pm 10.8 3.6 2.9 58 3.4 WNW 30 48 16 26 991.1 991.1 1.4
03/06:00pm 10.9 4.1 3.2 59 3.4 WNW 28 39 15 21 990.8 990.8 1.4
03/05:30pm 11.2 5.7 4.2 62 3.1 NW 22 37 12 20 990.3 990.3 1.4
03/05:00pm 11.3 6.7 6.4 72 2.3 WNW 20 28 11 15 989.6 989.6 1.4
03/04:30pm 11.5 7.6 7.0 74 2.1 W 17 22 9 12 989.0 989.0 1.4
03/04:00pm 11.9 9.9 8.6 80 1.7 SW 9 15 5 8 989.2 989.2 1.4
03/03:30pm 11.6 10.3 7.7 77 1.9 SW 4 7 2 4 988.6 988.6 1.4
03/03:00pm 11.7 8.5 8.4 80 1.6 SW 15 19 8 10 987.9 987.9 1.4
03/02:30pm 12.8 9.7 8.9 77 2.0 SW 15 17 8 9 987.6 987.6 1.4
03/02:00pm 12.2 10.3 8.9 80 1.7 WSW 9 11 5 6 987.9 987.9 1.4
03/01:30pm 12.0 10.5 8.5 79 1.7 WSW 6 9 3 5 987.9 987.9 1.4
03/01:00pm 11.8 10.1 8.5 80 1.7 WSW 7 11 4 6 987.4 987.4 1.4
03/12:30pm 11.4 7.0 9.1 86 1.1 WSW 22 32 12 17 988.4 988.4 1.2
03/12:00pm 12.1 8.5 9.7 85 1.2 W 19 24 10 13 988.6 988.6 1.2
03/11:30am 11.7 10.4 9.1 84 1.3 WNW 6 11 3 6 988.0 988.0 1.2
03/11:00am 12.5 8.4 8.8 78 1.9 W 20 26 11 14 988.3 988.3 0.4
03/10:30am 13.7 9.9 9.2 74 2.3 W 19 24 10 13 988.4 988.4 0.2
03/10:00am 13.7 10.0 9.6 76 2.1 W 19 20 10 11 988.1 988.1 0.2
03/09:30am 13.6 9.5 10.2 80 1.8 W 22 28 12 15 988.4 988.4 0.2
03/09:00am 14.3 9.9 9.1 71 2.7 WNW 22 33 12 18 989.0 989.0 4.6
03/08:30am 14.1 10.7 9.1 72 2.5 WNW 17 24 9 13 988.6 988.6 4.6
03/08:00am 13.1 11.0 9.7 80 1.8 NNW 11 19 6 10 987.7 987.7 4.6
03/07:30am 13.4 9.8 9.8 79 1.8 NW 19 26 10 14 988.1 988.1 4.4
03/07:00am 13.1 9.1 10.5 84 1.4 NW 22 35 12 19 987.9 987.9 3.8
03/06:30am 13.7 7.2 11.6 87 1.1 WNW 37 56 20 30 988.2 988.2 1.6
03/06:26am 14.7 9.6 12.0 84 1.5 WNW 30 56 16 30 987.9 987.9 0.8
03/06:00am 15.1 10.5 11.1 77 2.2 NNW 26 41 14 22 986.7 986.7 0.4
03/05:30am 15.3 10.5 10.3 72 2.6 NNW 26 39 14 21 987.1 987.1 0.0
03/05:00am 15.6 11.9 10.2 70 2.9 NNW 20 32 11 17 987.7 987.7 0.0
03/04:30am 16.1 12.9 9.8 66 3.3 NW 17 26 9 14 988.2 988.2 0.0
03/04:00am 16.2 13.2 9.2 63 3.7 N 15 28 8 15 988.2 988.2 0.0
03/03:30am 16.5 12.7 9.0 61 3.9 N 19 32 10 17 988.2 988.2 0.0
03/03:00am 16.0 12.5 8.7 62 3.8 N 17 26 9 14 988.3 988.3 0.0
03/02:30am 16.3 13.2 8.8 61 3.8 N 15 26 8 14 989.0 989.0 0.0
03/02:00am 15.1 12.6 8.3 64 3.5 N 11 19 6 10 989.2 989.2 0.0
03/01:30am 15.7 11.5 8.2 61 3.8 N 20 32 11 17 989.5 989.5 0.0
03/01:00am 15.7 11.7 8.4 62 3.7 N 19 32 10 17 989.9 989.9 0.0
03/12:30am 15.6 12.4 8.4 62 3.6 N 15 33 8 18 990.5 990.5 0.0
03/12:00am 15.7 11.2 8.4 62 3.7 N 22 30 12 16 990.4 990.4 0.0
 
Date/Time
EST
Tmp

°C
App
Tmp
°C
Dew
Point
°C
Rel
Hum
%
Delta-T

°C
Wind Press
QNH
hPa
Press
MSL
hPa
Rain
since
9 am
mm
Dir
 
Spd
km/h
Gust
km/h
Spd
kts
Gust
kts
02/11:30pm 15.9 10.1 7.9 59 4.0 N 28 41 15 22 990.8 990.8 0.0
02/11:00pm 16.2 10.6 7.2 55 4.5 N 26 44 14 24 991.7 991.7 0.0
02/10:30pm 15.9 9.8 6.6 54 4.5 N 28 46 15 25 992.0 992.0 0.0
02/10:00pm 15.8 9.7 6.8 55 4.5 N 28 46 15 25 992.0 992.0 0.0
02/09:57pm 15.7 9.7 7.0 56 4.3 N 28 46 15 25 992.0 992.0 0.0
02/09:30pm 15.3 11.3 6.8 57 4.2 N 17 30 9 16 992.9 992.9 0.0
02/09:00pm 14.6 11.3 8.1 65 3.3 NNE 15 28 8 15 993.7 993.7 0.0
02/08:30pm 14.4 9.2 9.0 70 2.7 NE 26 35 14 19 994.2 994.2 0.0
02/08:00pm 14.8 11.9 8.1 64 3.4 N 13 24 7 13 995.0 995.0 0.0
02/07:30pm 14.6 9.0 8.8 68 2.9 NNE 28 43 15 23 995.0 995.0 0.0
02/07:00pm 14.5 7.9 8.7 68 3.0 NNE 33 48 18 26 995.0 995.0 0.0
02/06:30pm 14.8 9.8 8.1 64 3.4 N 24 44 13 24 995.5 995.5 0.0
02/06:00pm 14.6 10.5 7.9 64 3.4 N 19 28 10 15 995.7 995.7 0.0
02/05:30pm 14.4 9.1 8.6 68 2.9 NE 26 39 14 21 996.0 996.0 0.0
02/05:00pm 15.0 10.1 8.3 64 3.4 NNE 24 33 13 18 996.1 996.1 0.0
02/04:30pm 15.6 9.8 7.9 60 3.9 N 28 37 15 20 996.7 996.7 0.0
02/04:00pm 16.1 11.3 7.3 56 4.4 N 22 37 12 20 996.8 996.8 0.0
02/03:30pm 17.3 13.6 6.2 48 5.4 N 15 26 8 14 996.9 996.9 0.0
02/03:00pm 18.0 12.5 3.9 39 6.7 NW 22 39 12 21 997.5 997.5 0.0
02/02:30pm 17.4 12.6 4.4 42 6.1 NW 19 30 10 16 998.0 998.0 0.0
02/02:00pm 17.6 12.6 4.6 42 6.2 NW 20 39 11 21 998.3 998.3 0.0
02/01:30pm 17.2 12.7 4.2 42 6.1 NW 17 28 9 15 998.8 998.8 0.0
02/01:17pm 16.9 9.6 4.6 44 5.8 WNW 32 52 17 28 999.1 999.1 0.0
02/01:00pm 16.5 9.7 4.9 46 5.5 NW 30 46 16 25 999.3 999.3 0.0
02/12:59pm 16.6 10.1 4.9 46 5.6 NW 28 46 15 25 999.3 999.3 0.0

Latest Capital City Observations: Canberra | Sydney | Melbourne | Brisbane | Adelaide | Perth | Hobart | Darwin

Other Formats:

Comma delimited format used in spreadsheet applications
http://www.bom.gov.au/fwo/IDT60901/IDT60901.94951.axf

JavaScript Object Notation format (JSON) in row-major order
http://www.bom.gov.au/fwo/IDT60901/IDT60901.94951.json